Terminal Aerodrome Forecast
Issued by NWS

Home | Current Version | Previous Version | Graphics & Text | Print | Product List | Glossary On
Versions: 1 2 3 4 5 6 7 8 9 10 11 12 13 14 15 16 17
000
FTUS43 KMPX 261434 AAA
TAFAXN
TAF AMD
KAXN 261434Z 2615/2712 02015G22KT 6SM -FZDZSN BR OVC012
     FM261600 36013G18KT P6SM -DZSN OVC012
     FM262300 35011KT P6SM -DZSN SCT008 OVC015
     FM270100 35009KT 5SM BR OVC008=

USA.gov is the U.S. government's official web portal to all federal, state and local government web resources and services.